Time;durP1;ratioP1;P1;durP2;ratioP2;P2;SDS_P1;SDS_P2;PMS_P1;PMS_P2;Temp;Humidity;BMP_temperature;BMP_pressure;BME280_temperature;BME280_humidity;BME280_pressure;Samples;Min_cycle;Max_cycle;Signal;HPM_P1;HPM_P2
2023/04/19 00:00:07;;;;;;;3.50;1.35;;;3.60;99.90;;;;;;5001096;28;20053;-62
2023/04/19 00:02:35;;;;;;;6.55;1.73;;;3.60;99.90;;;;;;5004851;28;20057;-62
2023/04/19 00:05:03;;;;;;;3.95;1.63;;;3.60;99.90;;;;;;5011103;28;20510;-70
2023/04/19 00:07:31;;;;;;;3.95;1.25;;;3.50;99.90;;;;;;5017026;28;20088;-66
2023/04/19 00:09:57;;;;;;;2.60;1.33;;;3.50;99.90;;;;;;5019589;28;20140;-66
2023/04/19 00:12:24;;;;;;;5.00;1.48;;;3.50;99.90;;;;;;5006087;28;20124;-64
2023/04/19 00:14:51;;;;;;;5.93;1.42;;;3.40;99.90;;;;;;5011658;28;20049;-68
2023/04/19 00:17:18;;;;;;;5.38;1.42;;;3.50;99.90;;;;;;5007388;28;20154;-66
2023/04/19 00:19:45;;;;;;;7.63;2.05;;;3.40;99.90;;;;;;5005892;28;20125;-62
2023/04/19 00:22:12;;;;;;;8.43;1.80;;;3.40;99.90;;;;;;5018783;28;20068;-68
2023/04/19 00:24:39;;;;;;;4.88;1.95;;;3.40;99.90;;;;;;5008297;28;20053;-63
2023/04/19 00:27:06;;;;;;;4.03;1.58;;;3.40;99.90;;;;;;5004954;28;20092;-61
2023/04/19 00:29:33;;;;;;;3.30;1.52;;;3.40;99.90;;;;;;5016756;28;20057;-68
2023/04/19 00:32:00;;;;;;;6.53;1.70;;;3.40;99.90;;;;;;5014934;28;20053;-65
2023/04/19 00:34:29;;;;;;;4.68;1.83;;;3.40;99.90;;;;;;5003961;28;20193;-64
2023/04/19 00:36:56;;;;;;;4.38;2.10;;;3.30;99.90;;;;;;5007453;28;20057;-68
2023/04/19 00:39:23;;;;;;;4.25;2.47;;;3.30;99.90;;;;;;5021561;28;20141;-63
2023/04/19 00:41:49;;;;;;;4.05;1.95;;;3.30;99.90;;;;;;5015791;28;20064;-63
2023/04/19 00:44:17;;;;;;;5.78;2.03;;;3.30;99.90;;;;;;5022804;28;20411;-63
2023/04/19 00:46:44;;;;;;;4.00;2.08;;;3.20;99.90;;;;;;5015755;28;20470;-61
2023/04/19 00:49:11;;;;;;;7.40;1.90;;;3.20;99.90;;;;;;5015965;28;20116;-64
2023/04/19 00:51:38;;;;;;;6.72;2.13;;;3.20;99.90;;;;;;5019462;28;20132;-69
2023/04/19 00:54:07;;;;;;;5.75;1.73;;;3.10;99.90;;;;;;5021102;28;20059;-61
2023/04/19 00:56:34;;;;;;;4.82;2.50;;;3.00;99.90;;;;;;5023647;28;20152;-62
2023/04/19 00:59:01;;;;;;;3.28;1.80;;;3.00;99.90;;;;;;5015491;28;20053;-68
2023/04/19 01:01:29;;;;;;;7.30;1.67;;;2.90;99.90;;;;;;5012315;28;20464;-62
2023/04/19 01:03:57;;;;;;;4.60;1.60;;;2.90;99.90;;;;;;5019094;28;20161;-63
2023/04/19 01:06:26;;;;;;;4.60;2.20;;;2.90;99.90;;;;;;5030358;28;20050;-68
2023/04/19 01:08:53;;;;;;;4.15;1.88;;;2.90;99.90;;;;;;5015965;28;20058;-68
2023/04/19 01:11:25;;;;;;;7.07;2.13;;;2.80;99.90;;;;;;5018740;28;20137;-60
2023/04/19 01:13:52;;;;;;;5.28;2.13;;;2.80;99.90;;;;;;5002993;28;20105;-63
2023/04/19 01:16:19;;;;;;;6.82;1.75;;;2.80;99.90;;;;;;5009378;28;20064;-65
2023/04/19 01:18:47;;;;;;;6.63;2.20;;;2.80;99.90;;;;;;4996631;28;20559;-66
2023/04/19 01:21:14;;;;;;;8.57;2.65;;;2.80;99.90;;;;;;5010906;28;20144;-67
2023/04/19 01:23:41;;;;;;;2.97;1.80;;;2.80;99.90;;;;;;5000908;28;20053;-62
2023/04/19 01:26:08;;;;;;;3.65;1.63;;;2.80;99.90;;;;;;4997651;28;20062;-63
2023/04/19 01:28:35;;;;;;;5.47;1.90;;;2.70;99.90;;;;;;5013906;28;20057;-63
2023/04/19 01:31:02;;;;;;;3.33;2.00;;;2.70;99.90;;;;;;5018402;28;20064;-60
2023/04/19 01:33:29;;;;;;;3.72;1.75;;;2.60;99.90;;;;;;5000625;28;20037;-60
2023/04/19 01:35:56;;;;;;;5.15;1.67;;;2.60;99.90;;;;;;5014528;28;20080;-67
2023/04/19 01:38:23;;;;;;;5.10;2.05;;;2.60;99.90;;;;;;5016589;28;20049;-64
2023/04/19 01:40:50;;;;;;;6.35;2.17;;;2.60;99.90;;;;;;5018296;28;20137;-65
2023/04/19 01:43:17;;;;;;;5.20;2.13;;;2.60;99.90;;;;;;4997484;28;20483;-66
2023/04/19 01:45:45;;;;;;;6.97;2.83;;;2.60;99.90;;;;;;5000462;28;20077;-61
2023/04/19 01:48:11;;;;;;;4.85;1.98;;;2.60;99.90;;;;;;4996872;28;20049;-65
2023/04/19 01:50:38;;;;;;;7.15;2.63;;;2.60;99.90;;;;;;5001750;28;20042;-62
2023/04/19 01:53:05;;;;;;;7.80;2.33;;;2.60;99.90;;;;;;5004668;28;20073;-61
2023/04/19 01:55:32;;;;;;;3.20;2.20;;;2.60;99.90;;;;;;5012704;28;20474;-64
2023/04/19 01:57:59;;;;;;;5.18;3.00;;;2.60;99.90;;;;;;5014575;28;20140;-64
2023/04/19 02:00:27;;;;;;;5.93;2.00;;;2.60;99.90;;;;;;5020828;28;20056;-62
2023/04/19 02:02:54;;;;;;;6.60;2.90;;;2.60;99.90;;;;;;5015443;28;20053;-67
2023/04/19 02:05:21;;;;;;;6.93;2.10;;;2.60;99.90;;;;;;5014591;28;20111;-65
2023/04/19 02:07:48;;;;;;;2.67;2.10;;;2.60;99.90;;;;;;5015544;28;20055;-62
2023/04/19 02:10:15;;;;;;;4.65;1.73;;;2.50;99.90;;;;;;5017506;28;20081;-62
2023/04/19 02:12:42;;;;;;;2.78;2.22;;;2.50;99.90;;;;;;5027234;28;20132;-64
2023/04/19 02:15:09;;;;;;;8.60;2.90;;;2.50;99.90;;;;;;5020123;28;20060;-61
2023/04/19 02:17:36;;;;;;;4.80;2.50;;;2.40;99.90;;;;;;5021677;28;20038;-62
2023/04/19 02:20:04;;;;;;;4.75;2.47;;;2.40;99.90;;;;;;5008904;28;20472;-63
2023/04/19 02:22:31;;;;;;;6.22;2.58;;;2.40;99.90;;;;;;5016104;28;20066;-61
2023/04/19 02:24:58;;;;;;;7.13;2.28;;;2.30;99.90;;;;;;5004104;28;20038;-61
2023/04/19 02:27:28;;;;;;;4.10;2.15;;;2.20;99.90;;;;;;5016171;28;20136;-64
2023/04/19 02:29:55;;;;;;;4.63;1.98;;;2.20;99.90;;;;;;4999979;28;20069;-62
2023/04/19 02:32:23;;;;;;;6.68;2.55;;;2.10;99.90;;;;;;5016660;28;20050;-64
2023/04/19 02:34:50;;;;;;;4.03;2.47;;;2.10;99.90;;;;;;5015989;28;20569;-66
2023/04/19 02:37:17;;;;;;;4.43;2.10;;;2.00;99.90;;;;;;5011711;28;20415;-62
2023/04/19 02:39:44;;;;;;;5.55;2.22;;;2.00;99.90;;;;;;5020216;28;20063;-61
2023/04/19 02:42:11;;;;;;;6.72;3.28;;;1.90;99.90;;;;;;5013327;28;20068;-63
2023/04/19 02:44:38;;;;;;;3.55;2.30;;;1.90;99.90;;;;;;5015952;28;20057;-64
2023/04/19 02:47:05;;;;;;;3.90;2.20;;;1.90;99.90;;;;;;5010279;28;20062;-65
2023/04/19 02:49:35;;;;;;;2.83;2.42;;;1.90;99.90;;;;;;5025277;28;20045;-63
2023/04/19 02:52:03;;;;;;;3.50;3.17;;;2.00;99.90;;;;;;5001621;28;20061;-65
2023/04/19 02:54:32;;;;;;;2.50;2.20;;;2.00;99.90;;;;;;5006716;28;20061;-61
2023/04/19 02:56:59;;;;;;;3.30;2.03;;;2.00;99.90;;;;;;5011096;28;20109;-64
2023/04/19 02:59:27;;;;;;;5.82;2.10;;;2.00;99.90;;;;;;5018904;28;20042;-62
2023/04/19 03:01:56;;;;;;;6.50;2.33;;;2.00;99.90;;;;;;5020288;28;20053;-64
2023/04/19 03:04:24;;;;;;;4.57;2.63;;;2.00;99.90;;;;;;5018668;28;20125;-62
2023/04/19 03:06:51;;;;;;;4.63;2.75;;;2.00;99.90;;;;;;5014199;28;20046;-61
2023/04/19 03:09:18;;;;;;;7.40;2.78;;;2.00;99.90;;;;;;5015038;28;20432;-61
2023/04/19 03:11:45;;;;;;;3.47;3.17;;;2.00;99.90;;;;;;5012063;28;20061;-62
2023/04/19 03:14:12;;;;;;;6.05;3.22;;;2.10;99.90;;;;;;5017515;28;20065;-65
2023/04/19 03:16:39;;;;;;;7.45;2.65;;;2.10;99.90;;;;;;4993701;28;20142;-66
2023/04/19 03:19:07;;;;;;;5.57;2.60;;;2.10;99.90;;;;;;4995186;28;20119;-61
2023/04/19 03:21:40;;;;;;;6.25;2.53;;;2.10;99.90;;;;;;5012697;28;20057;-65
2023/04/19 03:24:07;;;;;;;4.13;2.58;;;2.10;99.90;;;;;;5016476;28;20061;-64
2023/04/19 03:26:37;;;;;;;10.35;3.58;;;2.20;99.90;;;;;;5028384;28;20496;-63
2023/04/19 03:29:04;;;;;;;6.22;2.67;;;2.20;99.90;;;;;;5007721;28;20057;-64
2023/04/19 03:31:50;;;;;;;13.65;3.78;;;2.20;99.90;;;;;;5008447;28;20617;-61
2023/04/19 03:34:17;;;;;;;13.77;3.10;;;2.30;99.90;;;;;;5001385;28;20088;-62
2023/04/19 03:36:47;;;;;;;4.20;2.30;;;2.30;99.90;;;;;;5005312;28;20112;-62
2023/04/19 03:39:14;;;;;;;12.18;3.30;;;2.30;99.90;;;;;;5017231;28;20056;-62
2023/04/19 03:41:44;;;;;;;6.55;2.70;;;2.30;99.90;;;;;;5028137;28;20060;-63
2023/04/19 03:44:20;;;;;;;16.23;3.90;;;2.40;99.90;;;;;;5017836;28;20071;-65
2023/04/19 03:46:47;;;;;;;8.05;3.60;;;2.40;99.90;;;;;;5019632;28;20104;-60
2023/04/19 03:49:18;;;;;;;7.43;2.75;;;2.40;99.90;;;;;;5000738;28;20431;-67
2023/04/19 03:51:50;;;;;;;8.48;3.20;;;2.40;99.90;;;;;;5000416;28;20054;-65
2023/04/19 03:54:17;;;;;;;6.65;2.47;;;2.50;99.90;;;;;;5014089;28;20057;-61
2023/04/19 03:56:44;;;;;;;3.35;2.70;;;2.50;99.90;;;;;;5012891;28;20083;-62
2023/04/19 03:59:11;;;;;;;7.47;2.60;;;2.60;99.90;;;;;;4998807;28;20149;-64
2023/04/19 04:01:40;;;;;;;14.63;3.60;;;2.60;99.90;;;;;;5012545;28;20049;-61
2023/04/19 04:04:08;;;;;;;7.57;2.40;;;2.60;99.90;;;;;;5027066;28;20494;-65
2023/04/19 04:06:36;;;;;;;14.90;4.22;;;2.70;99.90;;;;;;5021790;28;20058;-63
2023/04/19 04:09:03;;;;;;;9.60;3.10;;;2.70;99.90;;;;;;5012385;28;20140;-66
2023/04/19 04:11:30;;;;;;;9.52;4.35;;;2.60;99.90;;;;;;5006754;28;20060;-61
2023/04/19 04:13:57;;;;;;;7.57;2.47;;;2.70;99.90;;;;;;5015788;28;20487;-67
2023/04/19 04:16:30;;;;;;;10.50;2.63;;;2.70;99.90;;;;;;5033815;28;20521;-62
2023/04/19 04:18:57;;;;;;;4.53;3.28;;;2.70;99.90;;;;;;5021562;28;20049;-64
2023/04/19 04:21:26;;;;;;;13.68;4.43;;;2.70;99.90;;;;;;5017394;28;20046;-66
2023/04/19 04:23:55;;;;;;;11.88;3.17;;;2.80;99.90;;;;;;5001872;28;20109;-64
2023/04/19 04:26:38;;;;;;;7.22;2.72;;;2.80;99.90;;;;;;4997531;28;20619;-65
2023/04/19 04:29:26;;;;;;;;;;;2.80;99.90;;;;;;4999636;28;20054;-63
2023/04/19 04:31:56;;;;;;;11.05;2.78;;;2.90;99.90;;;;;;5016152;28;19925;-67
2023/04/19 04:34:27;;;;;;;10.15;3.60;;;2.90;99.90;;;;;;5031370;28;20053;-65
2023/04/19 04:37:05;;;;;;;3.95;2.53;;;3.00;99.90;;;;;;5018859;28;20093;-64
2023/04/19 04:39:37;;;;;;;24.73;5.00;;;3.00;99.90;;;;;;5023780;28;20800;-62
2023/04/19 04:42:09;;;;;;;9.55;2.65;;;3.10;99.90;;;;;;5016680;28;20052;-64
2023/04/19 04:44:37;;;;;;;8.85;2.78;;;3.30;99.90;;;;;;5025675;28;20515;-64
2023/04/19 04:47:06;;;;;;;15.07;2.87;;;3.40;99.90;;;;;;5001968;28;20104;-70
2023/04/19 04:49:39;;;;;;;10.13;2.80;;;3.50;99.90;;;;;;5015554;28;20515;-69
2023/04/19 04:52:07;;;;;;;7.25;3.58;;;3.60;99.90;;;;;;5021917;28;20056;-64
2023/04/19 04:54:41;;;;;;;6.60;2.80;;;3.70;99.90;;;;;;5024036;28;20053;-66
2023/04/19 04:57:18;;;;;;;9.23;2.28;;;3.90;99.90;;;;;;5016007;28;20136;-68
2023/04/19 04:59:47;;;;;;;5.22;2.17;;;4.00;99.90;;;;;;5024216;28;20049;-69
2023/04/19 05:02:15;;;;;;;7.70;3.00;;;4.00;99.90;;;;;;5021430;28;20062;-64
2023/04/19 05:04:42;;;;;;;9.95;2.75;;;4.10;99.90;;;;;;5020515;28;20060;-65
2023/04/19 05:07:09;;;;;;;10.45;2.20;;;4.30;99.90;;;;;;5011730;28;20069;-66
2023/04/19 05:09:37;;;;;;;7.03;2.30;;;4.40;99.90;;;;;;5007852;28;20821;-63
2023/04/19 05:12:04;;;;;;;7.30;2.60;;;4.40;99.90;;;;;;4987548;28;20046;-63
2023/04/19 05:14:31;;;;;;;10.07;3.55;;;4.50;99.90;;;;;;5035081;28;20072;-65
2023/04/19 05:16:58;;;;;;;5.55;1.95;;;4.60;99.90;;;;;;5011852;28;20771;-65
2023/04/19 05:19:24;;;;;;;8.05;3.38;;;4.70;99.90;;;;;;5006040;28;20046;-65
2023/04/19 05:21:58;;;;;;;20.55;4.00;;;4.80;99.90;;;;;;5018219;28;20065;-65
2023/04/19 05:24:25;;;;;;;4.65;2.53;;;4.90;99.90;;;;;;5017393;28;20060;-63
2023/04/19 05:26:52;;;;;;;8.60;1.95;;;4.90;99.90;;;;;;5015837;28;20108;-66
2023/04/19 05:29:19;;;;;;;7.38;2.17;;;5.00;99.90;;;;;;5006333;28;20161;-67
2023/04/19 05:31:49;;;;;;;7.25;3.55;;;5.10;99.90;;;;;;5031926;28;20067;-64
2023/04/19 05:34:42;;;;;;;6.78;2.25;;;5.20;99.90;;;;;;5024720;28;20538;-60
2023/04/19 05:37:12;;;;;;;4.75;1.98;;;5.20;99.90;;;;;;5017056;28;20061;-61
2023/04/19 05:39:40;;;;;;;10.93;2.63;;;5.30;99.90;;;;;;5020310;28;20132;-68
2023/04/19 05:42:10;;;;;;;11.20;2.90;;;5.50;99.90;;;;;;5001173;28;20492;-60
2023/04/19 05:44:36;;;;;;;8.27;3.25;;;5.60;99.90;;;;;;5003018;28;20383;-71
2023/04/19 05:47:04;;;;;;;5.18;2.63;;;5.70;99.90;;;;;;5025336;28;20091;-71
2023/04/19 05:49:49;;;;;;;5.65;2.13;;;5.80;99.90;;;;;;5013730;28;20076;-64
2023/04/19 05:52:26;;;;;;;4.00;2.30;;;5.90;99.90;;;;;;4998538;28;20504;-66
2023/04/19 05:54:55;;;;;;;10.93;2.50;;;6.00;99.90;;;;;;5002042;28;20068;-65
2023/04/19 05:57:22;;;;;;;17.35;2.72;;;6.10;99.90;;;;;;5019532;28;20057;-67
2023/04/19 05:59:49;;;;;;;10.77;2.47;;;6.20;99.90;;;;;;5000882;28;20074;-62
2023/04/19 06:02:20;;;;;;;7.30;2.55;;;6.30;99.90;;;;;;5025830;28;20054;-66
2023/04/19 06:04:48;;;;;;;5.05;2.08;;;6.30;99.90;;;;;;5004133;28;20684;-67
2023/04/19 06:07:16;;;;;;;5.40;2.63;;;6.40;99.90;;;;;;5002258;28;20102;-63
2023/04/19 06:09:58;;;;;;;1.80;1.63;;;6.50;99.90;;;;;;5021187;28;20061;-72
2023/04/19 06:12:25;;;;;;;8.38;2.72;;;6.60;99.90;;;;;;5023660;28;20041;-61
2023/04/19 06:14:53;;;;;;;4.93;1.90;;;6.60;99.90;;;;;;5024454;28;20053;-65
2023/04/19 06:17:23;;;;;;;16.73;2.25;;;6.70;99.90;;;;;;5029422;28;20108;-63
2023/04/19 06:19:51;;;;;;;8.45;1.77;;;6.80;99.90;;;;;;5016282;28;20104;-67
2023/04/19 06:22:17;;;;;;;5.35;2.15;;;6.90;99.90;;;;;;5002240;28;20074;-62
2023/04/19 06:24:45;;;;;;;20.85;3.33;;;6.90;99.90;;;;;;5022624;28;20077;-63
2023/04/19 06:27:14;;;;;;;3.88;1.52;;;7.00;99.90;;;;;;5020123;28;20116;-61
2023/04/19 06:29:41;;;;;;;7.13;2.35;;;7.10;99.90;;;;;;5019548;28;20052;-63
2023/04/19 06:32:08;;;;;;;15.27;1.90;;;7.10;99.90;;;;;;5017267;28;20400;-62
2023/04/19 06:34:35;;;;;;;10.40;2.20;;;7.20;99.90;;;;;;5004528;28;20145;-60
2023/04/19 06:37:02;;;;;;;4.45;1.23;;;7.20;99.90;;;;;;4999293;28;20058;-65
2023/04/19 06:39:29;;;;;;;5.05;1.73;;;7.30;99.90;;;;;;5013748;28;20045;-62
2023/04/19 06:41:56;;;;;;;11.18;2.60;;;7.30;99.90;;;;;;5012889;28;20049;-61
2023/04/19 06:44:23;;;;;;;6.13;1.92;;;7.40;99.90;;;;;;5012056;28;20046;-61
2023/04/19 06:46:50;;;;;;;7.45;2.30;;;7.40;99.90;;;;;;5018141;28;20100;-67
2023/04/19 06:49:17;;;;;;;16.92;2.25;;;7.40;99.90;;;;;;5002392;28;20472;-62
2023/04/19 06:51:44;;;;;;;13.52;2.58;;;7.50;99.90;;;;;;4997816;28;20054;-63
2023/04/19 06:54:11;;;;;;;11.18;2.30;;;7.50;99.90;;;;;;5015989;28;20115;-64
2023/04/19 06:56:44;;;;;;;7.03;2.78;;;7.60;99.90;;;;;;5018296;28;20161;-62
2023/04/19 06:59:16;;;;;;;11.80;1.90;;;7.70;99.90;;;;;;5018466;28;20060;-64
2023/04/19 07:01:43;;;;;;;9.43;1.90;;;7.70;99.90;;;;;;5002127;28;20050;-64
2023/04/19 07:04:11;;;;;;;8.55;1.83;;;7.80;99.90;;;;;;5017454;28;20053;-61
2023/04/19 07:06:39;;;;;;;5.80;2.05;;;7.80;99.90;;;;;;5018052;28;20058;-61
2023/04/19 07:09:07;;;;;;;11.02;2.20;;;7.90;99.90;;;;;;5012855;28;20081;-64
2023/04/19 07:11:34;;;;;;;6.65;2.00;;;8.00;99.90;;;;;;5007033;28;20065;-62
2023/04/19 07:14:01;;;;;;;8.93;1.42;;;8.00;99.90;;;;;;5003314;28;20141;-63
2023/04/19 07:16:28;;;;;;;8.38;2.50;;;8.00;99.90;;;;;;4994775;28;20606;-66
2023/04/19 07:18:56;;;;;;;10.27;2.05;;;8.10;99.90;;;;;;4999916;28;20057;-64
2023/04/19 07:21:25;;;;;;;7.57;2.30;;;8.20;99.90;;;;;;5014108;28;20049;-62
2023/04/19 07:23:52;;;;;;;12.98;2.20;;;8.20;99.90;;;;;;5019058;28;20084;-63
2023/04/19 07:26:19;;;;;;;4.18;1.65;;;8.30;99.90;;;;;;5019200;28;20140;-64
2023/04/19 07:28:46;;;;;;;7.47;2.10;;;8.40;99.90;;;;;;5017619;28;20084;-66
2023/04/19 07:31:15;;;;;;;3.60;1.83;;;8.40;99.90;;;;;;5023327;28;20045;-67
2023/04/19 07:33:42;;;;;;;5.55;1.90;;;8.50;99.90;;;;;;4996379;28;20053;-64
2023/04/19 07:36:10;;;;;;;6.63;2.67;;;8.60;99.90;;;;;;5021699;28;20046;-64
2023/04/19 07:38:37;;;;;;;6.60;2.08;;;8.60;99.90;;;;;;5015760;28;20041;-66
2023/04/19 07:41:04;;;;;;;9.35;1.73;;;8.60;99.90;;;;;;5013698;28;20057;-63
2023/04/19 07:43:31;;;;;;;3.45;1.88;;;8.70;99.90;;;;;;5015852;28;20462;-66
2023/04/19 07:45:58;;;;;;;5.72;1.92;;;8.70;99.90;;;;;;5019084;28;20423;-67
2023/04/19 07:48:25;;;;;;;6.50;1.58;;;8.70;99.90;;;;;;5006209;28;20092;-62
2023/04/19 07:50:52;;;;;;;13.88;3.10;;;8.80;99.80;;;;;;5010311;28;20179;-66
2023/04/19 07:53:19;;;;;;;5.25;1.88;;;8.80;99.80;;;;;;5015148;28;20547;-64
2023/04/19 07:55:46;;;;;;;13.18;1.80;;;8.90;99.00;;;;;;5000245;28;20055;-60
2023/04/19 07:58:13;;;;;;;9.85;2.03;;;8.90;97.50;;;;;;5019905;28;20061;-61
2023/04/19 08:00:40;;;;;;;3.78;1.45;;;8.90;96.80;;;;;;4999599;28;20149;-62
2023/04/19 08:03:07;;;;;;;6.63;2.38;;;9.00;97.40;;;;;;5003498;28;20100;-60
2023/04/19 08:05:34;;;;;;;3.80;1.70;;;9.10;97.60;;;;;;5011920;28;20053;-60
2023/04/19 08:08:01;;;;;;;15.13;2.90;;;9.20;97.80;;;;;;5001564;28;20042;-61
2023/04/19 08:10:29;;;;;;;6.30;2.05;;;9.20;98.20;;;;;;5018149;28;20057;-63
2023/04/19 08:12:56;;;;;;;14.05;3.72;;;9.20;97.70;;;;;;5016252;28;20539;-68
2023/04/19 08:15:33;;;;;;;7.30;2.45;;;9.20;97.00;;;;;;5018705;28;20064;-63
2023/04/19 08:18:03;;;;;;;3.72;2.10;;;9.20;97.10;;;;;;5015472;28;20048;-66
2023/04/19 08:20:31;;;;;;;9.40;2.55;;;9.20;97.70;;;;;;5013373;28;20053;-70
2023/04/19 08:22:59;;;;;;;7.20;2.00;;;9.20;97.60;;;;;;5005595;28;20132;-60
2023/04/19 08:25:36;;;;;;;11.25;2.38;;;9.30;97.20;;;;;;5016971;28;20045;-64
2023/04/19 08:28:04;;;;;;;15.75;2.95;;;9.30;96.10;;;;;;5016486;28;20052;-62
2023/04/19 08:30:31;;;;;;;6.65;3.10;;;9.30;96.50;;;;;;5023421;28;20551;-62
2023/04/19 08:32:58;;;;;;;13.85;3.20;;;9.30;95.80;;;;;;5018639;28;20050;-62
2023/04/19 08:35:26;;;;;;;13.82;2.05;;;9.40;96.70;;;;;;5021025;28;20045;-64
2023/04/19 08:37:52;;;;;;;5.22;1.65;;;9.40;96.10;;;;;;5016044;28;20053;-64
2023/04/19 08:40:19;;;;;;;15.52;2.90;;;9.40;97.10;;;;;;5017658;28;20049;-62
2023/04/19 08:42:46;;;;;;;11.55;2.05;;;9.50;97.50;;;;;;5020642;28;20088;-61
2023/04/19 08:45:15;;;;;;;8.82;2.22;;;9.60;96.70;;;;;;5019621;28;20072;-61
2023/04/19 08:47:57;;;;;;;9.43;3.40;;;9.70;96.10;;;;;;5000349;28;20495;-70
2023/04/19 08:50:28;;;;;;;12.38;4.47;;;9.70;97.00;;;;;;5006236;28;20049;-64
2023/04/19 08:53:02;;;;;;;6.43;2.08;;;9.70;96.20;;;;;;5023464;28;20045;-60
2023/04/19 08:55:32;;;;;;;8.25;1.90;;;9.80;96.70;;;;;;5014032;28;20546;-65
2023/04/19 08:58:02;;;;;;;9.48;2.40;;;9.90;96.70;;;;;;5017707;28;20140;-62
2023/04/19 09:00:33;;;;;;;13.57;3.22;;;9.90;97.20;;;;;;5011878;28;20235;-67
2023/04/19 09:02:59;;;;;;;13.68;3.22;;;10.00;95.60;;;;;;5006958;28;20754;-60
2023/04/19 09:05:27;;;;;;;11.00;3.72;;;10.00;95.70;;;;;;5005579;28;20074;-65
2023/04/19 09:08:15;;;;;;;11.13;3.15;;;10.00;97.30;;;;;;5000310;28;20466;-67
2023/04/19 09:10:59;;;;;;;18.15;2.63;;;10.00;96.40;;;;;;5012584;28;20065;-61
2023/04/19 09:13:27;;;;;;;3.50;1.77;;;10.00;95.80;;;;;;5015966;28;20081;-61
2023/04/19 09:15:56;;;;;;;9.48;1.85;;;10.00;97.10;;;;;;5018298;28;20507;-68
2023/04/19 09:18:26;;;;;;;3.97;1.75;;;10.10;96.60;;;;;;5012822;28;20049;-71
2023/04/19 09:20:57;;;;;;;10.88;2.30;;;10.20;95.80;;;;;;5014914;28;20060;-65
2023/04/19 09:23:26;;;;;;;8.07;2.80;;;10.20;95.60;;;;;;5022350;28;20084;-64
2023/04/19 09:26:01;;;;;;;8.68;2.80;;;10.30;95.90;;;;;;5020493;28;20468;-66
2023/04/19 09:28:31;;;;;;;5.85;1.70;;;10.40;95.90;;;;;;5021511;28;20829;-60
2023/04/19 09:31:09;;;;;;;4.97;1.52;;;10.30;95.30;;;;;;5033743;28;20065;-70
2023/04/19 09:33:40;;;;;;;13.55;1.95;;;10.30;96.30;;;;;;5029284;28;20496;-61
2023/04/19 09:36:07;;;;;;;8.18;2.88;;;10.50;95.80;;;;;;5021318;28;20096;-61
2023/04/19 09:38:48;;;;;;;11.65;2.00;;;10.60;95.20;;;;;;5013773;28;20644;-60
2023/04/19 09:41:18;;;;;;;9.82;1.83;;;10.70;95.30;;;;;;5011840;28;20049;-65
2023/04/19 09:43:46;;;;;;;;;;;10.60;94.80;;;;;;5016761;28;20053;-65
2023/04/19 09:46:35;;;;;;;5.85;1.58;;;10.70;95.70;;;;;;5020346;28;19925;-64
2023/04/19 09:49:22;;;;;;;35.53;4.20;;;10.80;96.10;;;;;;5008423;28;20049;-62
2023/04/19 09:52:09;;;;;;;103.47;13.82;;;10.80;94.60;;;;;;4994105;28;20053;-63
2023/04/19 09:54:36;;;;;;;17.20;2.72;;;10.80;96.00;;;;;;4998478;28;20041;-65
2023/04/19 09:57:03;;;;;;;15.63;2.85;;;10.80;96.70;;;;;;5012825;28;20059;-61
2023/04/19 09:59:31;;;;;;;31.45;4.03;;;10.90;95.60;;;;;;5002123;28;20046;-62
2023/04/19 10:01:59;;;;;;;10.77;2.13;;;10.90;96.10;;;;;;5025019;28;20068;-68
2023/04/19 10:04:27;;;;;;;21.42;2.22;;;10.90;95.80;;;;;;5019907;28;20503;-61
2023/04/19 10:07:14;;;;;;;21.75;3.42;;;11.00;94.80;;;;;;5007724;28;20524;-61
2023/04/19 10:09:47;;;;;;;15.50;2.25;;;11.10;95.20;;;;;;5005449;28;20062;-63
2023/04/19 10:12:17;;;;;;;12.10;3.28;;;11.20;93.80;;;;;;5020965;28;20038;-60
2023/04/19 10:15:06;;;;;;;13.80;2.25;;;11.30;94.70;;;;;;5012525;28;20111;-66
2023/04/19 10:17:33;;;;;;;51.47;6.68;;;11.30;94.30;;;;;;5021084;28;20058;-61
2023/04/19 10:20:05;;;;;;;23.65;4.30;;;11.30;93.50;;;;;;5016313;28;20119;-60
2023/04/19 10:22:36;;;;;;;11.45;2.38;;;11.20;93.70;;;;;;5012119;28;20066;-71
2023/04/19 10:25:15;;;;;;;18.58;3.03;;;11.20;93.60;;;;;;5011547;28;20050;-63
2023/04/19 10:27:45;;;;;;;16.25;2.40;;;11.20;94.40;;;;;;5012775;28;20053;-62
2023/04/19 10:30:20;;;;;;;23.52;3.33;;;11.10;93.70;;;;;;5018066;28;20050;-62
2023/04/19 10:32:58;;;;;;;38.63;4.85;;;11.10;94.00;;;;;;5009176;28;20088;-61
2023/04/19 10:35:33;;;;;;;13.88;1.73;;;11.00;93.80;;;;;;5011705;28;20514;-63
2023/04/19 10:38:15;;;;;;;12.88;1.92;;;10.90;94.30;;;;;;5019384;28;20526;-62
2023/04/19 10:40:55;;;;;;;10.52;2.05;;;11.00;94.00;;;;;;5011003;28;20545;-61
2023/04/19 10:43:54;;;;;;;8.23;1.35;;;11.20;93.90;;;;;;5012663;28;20150;-62
2023/04/19 10:46:21;;;;;;;12.57;2.90;;;11.30;93.70;;;;;;4994904;28;20066;-62
2023/04/19 10:48:54;;;;;;;13.40;2.88;;;11.30;93.70;;;;;;5002210;28;20046;-66
2023/04/19 10:51:26;;;;;;;14.93;2.28;;;11.30;93.50;;;;;;5011778;28;20049;-60
2023/04/19 10:53:55;;;;;;;31.08;1.98;;;11.40;93.30;;;;;;5022319;28;20072;-66
2023/04/19 10:56:33;;;;;;;28.55;4.07;;;11.40;94.00;;;;;;5015960;28;20045;-65
2023/04/19 10:59:10;;;;;;;17.13;3.30;;;11.40;93.10;;;;;;5014545;28;20156;-62
2023/04/19 11:01:57;;;;;;;22.58;2.67;;;11.40;93.10;;;;;;5023136;28;20115;-62
2023/04/19 11:04:31;;;;;;;11.05;2.05;;;11.50;92.90;;;;;;5016119;28;20056;-70
2023/04/19 11:07:03;;;;;;;7.53;1.77;;;11.50;92.20;;;;;;5019446;28;20168;-62
2023/04/19 11:09:41;;;;;;;16.08;2.95;;;11.50;93.00;;;;;;5004786;28;20065;-61
2023/04/19 11:12:11;;;;;;;5.93;2.25;;;11.50;93.20;;;;;;5017869;28;20522;-65
2023/04/19 11:14:46;;;;;;;7.65;1.88;;;11.50;92.80;;;;;;5006890;28;20129;-64
2023/04/19 11:17:24;;;;;;;13.82;1.80;;;11.40;92.90;;;;;;5012148;28;20467;-64
2023/04/19 11:19:55;;;;;;;14.90;2.05;;;11.30;92.70;;;;;;4996682;28;20054;-62
2023/04/19 11:22:30;;;;;;;26.45;3.33;;;11.40;92.60;;;;;;5002856;28;20050;-63
2023/04/19 11:25:03;;;;;;;7.93;1.67;;;11.50;93.10;;;;;;5014862;28;20574;-63
2023/04/19 11:27:32;;;;;;;31.50;4.82;;;11.50;92.30;;;;;;5003184;28;20413;-61
2023/04/19 11:30:07;;;;;;;16.15;3.40;;;11.60;92.40;;;;;;5014403;28;20456;-61
2023/04/19 11:32:35;;;;;;;30.33;6.45;;;11.50;92.50;;;;;;5012472;28;20065;-61
2023/04/19 11:35:07;;;;;;;22.25;3.47;;;11.50;93.00;;;;;;5012984;28;20061;-70
2023/04/19 11:37:36;;;;;;;13.85;3.28;;;11.50;91.40;;;;;;5023437;28;20103;-61
2023/04/19 11:40:07;;;;;;;11.40;1.88;;;11.40;92.10;;;;;;5016523;28;20068;-64
2023/04/19 11:42:35;;;;;;;8.65;1.15;;;11.30;92.40;;;;;;5016752;28;20044;-62
2023/04/19 11:45:02;;;;;;;9.82;2.42;;;11.30;91.60;;;;;;5005420;28;21030;-63
2023/04/19 11:47:29;;;;;;;6.15;1.38;;;11.40;91.50;;;;;;5014609;28;20103;-63
2023/04/19 11:50:16;;;;;;;27.85;3.38;;;11.40;91.90;;;;;;5013039;28;20048;-62
2023/04/19 11:52:48;;;;;;;10.18;1.88;;;11.60;92.00;;;;;;5012762;28;20081;-64
2023/04/19 11:55:18;;;;;;;8.25;1.35;;;11.70;92.00;;;;;;4994401;28;20134;-63
2023/04/19 11:57:46;;;;;;;;;;;11.70;93.20;;;;;;4990810;28;20128;-61
2023/04/19 12:00:13;;;;;;;21.80;3.30;;;11.70;92.70;;;;;;5001311;28;20310;-62
2023/04/19 12:02:43;;;;;;;11.93;2.60;;;11.70;91.30;;;;;;4998689;28;20049;-62
2023/04/19 12:05:12;;;;;;;4.40;2.13;;;11.60;94.40;;;;;;5013192;28;20153;-65
2023/04/19 12:08:03;;;;;;;4.35;1.55;;;11.40;97.20;;;;;;5015260;28;20352;-70
2023/04/19 12:10:31;;;;;;;3.97;1.67;;;10.80;99.30;;;;;;4996141;28;20060;-62
2023/04/19 12:12:58;;;;;;;5.45;1.65;;;10.30;99.90;;;;;;4995581;28;20046;-60
2023/04/19 12:15:47;;;;;;;7.00;1.70;;;10.10;99.90;;;;;;4995712;28;20074;-62
2023/04/19 12:18:14;;;;;;;3.05;1.85;;;9.90;99.90;;;;;;5015370;28;20148;-60
2023/04/19 12:20:46;;;;;;;3.70;1.85;;;9.50;99.90;;;;;;5018352;28;20064;-66
2023/04/19 12:23:15;;;;;;;5.47;2.17;;;9.40;99.90;;;;;;5013284;28;20519;-60
2023/04/19 12:25:45;;;;;;;4.28;1.85;;;9.20;99.90;;;;;;5013643;28;20429;-64
2023/04/19 12:28:13;;;;;;;2.17;1.40;;;9.10;99.90;;;;;;5014719;28;20337;-59
2023/04/19 12:30:40;;;;;;;3.40;1.52;;;9.00;99.90;;;;;;5021372;28;20480;-64
2023/04/19 12:33:08;;;;;;;4.15;2.08;;;8.70;99.90;;;;;;5015888;28;20045;-61
2023/04/19 12:35:36;;;;;;;5.85;3.25;;;8.50;99.90;;;;;;5019079;28;20045;-61
2023/04/19 12:38:03;;;;;;;7.47;2.50;;;8.40;99.90;;;;;;5009446;28;20046;-60
2023/04/19 12:40:30;;;;;;;6.15;2.22;;;8.30;99.90;;;;;;5002286;28;20050;-64
2023/04/19 12:42:57;;;;;;;2.42;1.70;;;8.20;99.90;;;;;;5016748;28;20141;-64
2023/04/19 12:45:24;;;;;;;4.47;2.10;;;8.10;99.90;;;;;;5016150;28;20038;-62
2023/04/19 12:47:51;;;;;;;6.57;2.33;;;8.20;99.90;;;;;;4993870;28;20050;-59
2023/04/19 12:50:18;;;;;;;5.22;2.17;;;8.10;99.90;;;;;;4996206;28;20058;-61
2023/04/19 12:52:45;;;;;;;10.15;2.35;;;8.10;99.90;;;;;;4994690;28;20050;-64
2023/04/19 12:55:12;;;;;;;4.45;2.92;;;8.20;99.90;;;;;;5008203;28;20137;-61
2023/04/19 12:57:39;;;;;;;4.18;1.63;;;8.50;99.90;;;;;;4999943;28;20124;-65
2023/04/19 13:00:09;;;;;;;5.13;2.53;;;8.60;99.90;;;;;;5004128;28;20484;-64
2023/04/19 13:02:36;;;;;;;4.82;2.03;;;8.60;99.90;;;;;;5003279;28;20140;-67
2023/04/19 13:05:04;;;;;;;5.60;2.55;;;8.60;99.90;;;;;;5003715;28;20056;-61